sensor_id;sensor_type;location;lat;lon;timestamp;temperature;humidity
52849;DHT22;38714;53.180;5.812;2023-12-20T00:00:17;6.80;99.90
52849;DHT22;38714;53.180;5.812;2023-12-20T00:02:43;6.80;99.90
52849;DHT22;38714;53.180;5.812;2023-12-20T00:05:13;6.70;99.90
52849;DHT22;38714;53.180;5.812;2023-12-20T00:07:39;6.70;99.90
52849;DHT22;38714;53.180;5.812;2023-12-20T00:10:05;6.70;99.90
52849;DHT22;38714;53.180;5.812;2023-12-20T00:12:30;6.60;99.90
52849;DHT22;38714;53.180;5.812;2023-12-20T00:14:56;6.60;99.90
52849;DHT22;38714;53.180;5.812;2023-12-20T00:17:21;6.60;99.90
52849;DHT22;38714;53.180;5.812;2023-12-20T00:19:47;6.60;99.90
52849;DHT22;38714;53.180;5.812;2023-12-20T00:22:12;6.50;99.90
52849;DHT22;38714;53.180;5.812;2023-12-20T00:24:38;6.60;99.90
52849;DHT22;38714;53.180;5.812;2023-12-20T00:27:04;6.50;99.90
52849;DHT22;38714;53.180;5.812;2023-12-20T00:29:29;6.60;99.90
52849;DHT22;38714;53.180;5.812;2023-12-20T00:31:55;6.60;99.90
52849;DHT22;38714;53.180;5.812;2023-12-20T00:34:20;6.60;99.90
52849;DHT22;38714;53.180;5.812;2023-12-20T00:36:46;6.60;99.90
52849;DHT22;38714;53.180;5.812;2023-12-20T00:39:12;6.60;99.90
52849;DHT22;38714;53.180;5.812;2023-12-20T00:41:38;6.60;99.90
52849;DHT22;38714;53.180;5.812;2023-12-20T00:44:04;6.70;99.90
52849;DHT22;38714;53.180;5.812;2023-12-20T00:46:29;6.70;99.90
52849;DHT22;38714;53.180;5.812;2023-12-20T00:48:55;6.70;99.90
52849;DHT22;38714;53.180;5.812;2023-12-20T00:51:20;6.70;99.90
52849;DHT22;38714;53.180;5.812;2023-12-20T00:53:48;6.70;99.90
52849;DHT22;38714;53.180;5.812;2023-12-20T00:56:14;6.70;99.90
52849;DHT22;38714;53.180;5.812;2023-12-20T00:58:40;6.70;99.90
52849;DHT22;38714;53.180;5.812;2023-12-20T01:01:05;6.70;99.90
52849;DHT22;38714;53.180;5.812;2023-12-20T01:03:31;6.70;99.90
52849;DHT22;38714;53.180;5.812;2023-12-20T01:05:57;6.70;99.90
52849;DHT22;38714;53.180;5.812;2023-12-20T01:08:23;6.70;99.90
52849;DHT22;38714;53.180;5.812;2023-12-20T01:10:48;6.70;99.90
52849;DHT22;38714;53.180;5.812;2023-12-20T01:13:14;6.70;99.90
52849;DHT22;38714;53.180;5.812;2023-12-20T01:15:39;6.80;99.90
52849;DHT22;38714;53.180;5.812;2023-12-20T01:18:05;6.80;99.90
52849;DHT22;38714;53.180;5.812;2023-12-20T01:20:30;6.80;99.90
52849;DHT22;38714;53.180;5.812;2023-12-20T01:22:56;6.80;99.90
52849;DHT22;38714;53.180;5.812;2023-12-20T01:25:22;6.80;99.90
52849;DHT22;38714;53.180;5.812;2023-12-20T01:27:47;6.90;99.90
52849;DHT22;38714;53.180;5.812;2023-12-20T01:30:13;6.90;99.90
52849;DHT22;38714;53.180;5.812;2023-12-20T01:32:39;6.90;99.90
52849;DHT22;38714;53.180;5.812;2023-12-20T01:35:05;7.00;99.90
52849;DHT22;38714;53.180;5.812;2023-12-20T01:37:30;7.00;99.90
52849;DHT22;38714;53.180;5.812;2023-12-20T01:39:56;7.00;99.90
52849;DHT22;38714;53.180;5.812;2023-12-20T01:42:22;7.00;99.90
52849;DHT22;38714;53.180;5.812;2023-12-20T01:44:47;7.00;99.90
52849;DHT22;38714;53.180;5.812;2023-12-20T01:47:13;7.00;99.90
52849;DHT22;38714;53.180;5.812;2023-12-20T01:49:39;7.10;99.90
52849;DHT22;38714;53.180;5.812;2023-12-20T01:52:05;7.00;99.90
52849;DHT22;38714;53.180;5.812;2023-12-20T01:54:31;7.00;99.90
52849;DHT22;38714;53.180;5.812;2023-12-20T01:56:57;7.10;99.90
52849;DHT22;38714;53.180;5.812;2023-12-20T01:59:23;7.00;99.90
52849;DHT22;38714;53.180;5.812;2023-12-20T02:01:48;7.10;99.90
52849;DHT22;38714;53.180;5.812;2023-12-20T02:06:43;7.10;99.90
52849;DHT22;38714;53.180;5.812;2023-12-20T02:09:11;7.10;99.90
52849;DHT22;38714;53.180;5.812;2023-12-20T02:11:38;7.10;99.90
52849;DHT22;38714;53.180;5.812;2023-12-20T02:14:04;7.10;99.90
52849;DHT22;38714;53.180;5.812;2023-12-20T02:16:30;7.10;99.90
52849;DHT22;38714;53.180;5.812;2023-12-20T02:18:55;7.10;99.90
52849;DHT22;38714;53.180;5.812;2023-12-20T02:21:25;7.10;99.90
52849;DHT22;38714;53.180;5.812;2023-12-20T02:23:51;7.20;99.90
52849;DHT22;38714;53.180;5.812;2023-12-20T02:26:16;7.10;99.90
52849;DHT22;38714;53.180;5.812;2023-12-20T02:28:44;7.10;99.90
52849;DHT22;38714;53.180;5.812;2023-12-20T02:31:09;7.10;99.90
52849;DHT22;38714;53.180;5.812;2023-12-20T02:33:35;7.10;99.90
52849;DHT22;38714;53.180;5.812;2023-12-20T02:36:00;7.10;99.90
52849;DHT22;38714;53.180;5.812;2023-12-20T02:38:26;7.10;99.90
52849;DHT22;38714;53.180;5.812;2023-12-20T02:40:51;7.10;99.90
52849;DHT22;38714;53.180;5.812;2023-12-20T02:43:17;7.10;99.90
52849;DHT22;38714;53.180;5.812;2023-12-20T02:45:42;7.10;99.90
52849;DHT22;38714;53.180;5.812;2023-12-20T02:48:08;7.10;99.90
52849;DHT22;38714;53.180;5.812;2023-12-20T02:50:34;7.10;99.90
52849;DHT22;38714;53.180;5.812;2023-12-20T02:52:59;7.10;99.90
52849;DHT22;38714;53.180;5.812;2023-12-20T02:55:25;7.10;99.90
52849;DHT22;38714;53.180;5.812;2023-12-20T02:57:50;7.10;99.90
52849;DHT22;38714;53.180;5.812;2023-12-20T03:00:16;7.10;99.90
52849;DHT22;38714;53.180;5.812;2023-12-20T03:02:41;7.10;99.90
52849;DHT22;38714;53.180;5.812;2023-12-20T03:05:07;7.00;99.90
52849;DHT22;38714;53.180;5.812;2023-12-20T03:07:33;7.00;99.90
52849;DHT22;38714;53.180;5.812;2023-12-20T03:09:58;7.10;99.90
52849;DHT22;38714;53.180;5.812;2023-12-20T03:12:24;7.00;99.90
52849;DHT22;38714;53.180;5.812;2023-12-20T03:14:50;7.10;99.90
52849;DHT22;38714;53.180;5.812;2023-12-20T03:17:15;7.10;99.90
52849;DHT22;38714;53.180;5.812;2023-12-20T03:19:41;7.10;99.90
52849;DHT22;38714;53.180;5.812;2023-12-20T03:22:06;7.10;99.90
52849;DHT22;38714;53.180;5.812;2023-12-20T03:24:32;7.20;99.90
52849;DHT22;38714;53.180;5.812;2023-12-20T03:26:57;7.20;99.90
52849;DHT22;38714;53.180;5.812;2023-12-20T03:29:23;7.20;99.90
52849;DHT22;38714;53.180;5.812;2023-12-20T03:31:49;7.20;99.90
52849;DHT22;38714;53.180;5.812;2023-12-20T03:34:14;7.20;99.90
52849;DHT22;38714;53.180;5.812;2023-12-20T03:36:40;7.20;99.90
52849;DHT22;38714;53.180;5.812;2023-12-20T03:39:05;7.30;99.90
52849;DHT22;38714;53.180;5.812;2023-12-20T03:41:31;7.30;99.90
52849;DHT22;38714;53.180;5.812;2023-12-20T03:43:56;7.30;99.90
52849;DHT22;38714;53.180;5.812;2023-12-20T03:46:22;7.30;99.90
52849;DHT22;38714;53.180;5.812;2023-12-20T03:48:48;7.30;99.90
52849;DHT22;38714;53.180;5.812;2023-12-20T03:51:13;7.20;99.90
52849;DHT22;38714;53.180;5.812;2023-12-20T03:53:39;7.30;99.90
52849;DHT22;38714;53.180;5.812;2023-12-20T03:56:06;7.30;99.90
52849;DHT22;38714;53.180;5.812;2023-12-20T03:58:31;7.30;99.90
52849;DHT22;38714;53.180;5.812;2023-12-20T04:00:57;7.30;99.90
52849;DHT22;38714;53.180;5.812;2023-12-20T04:03:22;7.30;99.90
52849;DHT22;38714;53.180;5.812;2023-12-20T04:05:48;7.30;99.90
52849;DHT22;38714;53.180;5.812;2023-12-20T04:08:13;7.30;99.90
52849;DHT22;38714;53.180;5.812;2023-12-20T04:10:39;7.40;99.90
52849;DHT22;38714;53.180;5.812;2023-12-20T04:13:05;7.30;99.90
52849;DHT22;38714;53.180;5.812;2023-12-20T04:15:30;7.30;99.90
52849;DHT22;38714;53.180;5.812;2023-12-20T04:17:56;7.30;99.90
52849;DHT22;38714;53.180;5.812;2023-12-20T04:20:21;7.30;99.90
52849;DHT22;38714;53.180;5.812;2023-12-20T04:22:47;7.40;99.90
52849;DHT22;38714;53.180;5.812;2023-12-20T04:25:12;7.30;99.90
52849;DHT22;38714;53.180;5.812;2023-12-20T04:27:38;7.40;99.90
52849;DHT22;38714;53.180;5.812;2023-12-20T04:30:04;7.40;99.90
52849;DHT22;38714;53.180;5.812;2023-12-20T04:32:30;7.40;99.90
52849;DHT22;38714;53.180;5.812;2023-12-20T04:34:56;7.40;99.90
52849;DHT22;38714;53.180;5.812;2023-12-20T04:37:22;7.40;99.90
52849;DHT22;38714;53.180;5.812;2023-12-20T04:39:48;7.40;99.90
52849;DHT22;38714;53.180;5.812;2023-12-20T04:42:13;7.40;99.90
52849;DHT22;38714;53.180;5.812;2023-12-20T04:44:39;7.40;99.90
52849;DHT22;38714;53.180;5.812;2023-12-20T04:47:05;7.40;99.90
52849;DHT22;38714;53.180;5.812;2023-12-20T04:49:30;7.40;99.90
52849;DHT22;38714;53.180;5.812;2023-12-20T04:51:56;7.40;99.90
52849;DHT22;38714;53.180;5.812;2023-12-20T04:54:22;7.40;99.90
52849;DHT22;38714;53.180;5.812;2023-12-20T04:56:47;7.40;99.90
52849;DHT22;38714;53.180;5.812;2023-12-20T04:59:13;7.50;99.90
52849;DHT22;38714;53.180;5.812;2023-12-20T05:01:39;7.50;99.90
52849;DHT22;38714;53.180;5.812;2023-12-20T05:04:04;7.50;99.90
52849;DHT22;38714;53.180;5.812;2023-12-20T05:06:30;7.50;99.90
52849;DHT22;38714;53.180;5.812;2023-12-20T05:08:55;7.50;99.90
52849;DHT22;38714;53.180;5.812;2023-12-20T05:11:21;7.50;99.90
52849;DHT22;38714;53.180;5.812;2023-12-20T05:13:47;7.50;99.90
52849;DHT22;38714;53.180;5.812;2023-12-20T05:16:13;7.50;99.90
52849;DHT22;38714;53.180;5.812;2023-12-20T05:18:40;7.50;99.90
52849;DHT22;38714;53.180;5.812;2023-12-20T05:21:05;7.50;99.90
52849;DHT22;38714;53.180;5.812;2023-12-20T05:23:31;7.60;99.90
52849;DHT22;38714;53.180;5.812;2023-12-20T05:25:56;7.60;99.90
52849;DHT22;38714;53.180;5.812;2023-12-20T05:28:22;7.60;99.90
52849;DHT22;38714;53.180;5.812;2023-12-20T05:30:48;7.60;99.90
52849;DHT22;38714;53.180;5.812;2023-12-20T05:33:14;7.60;99.90
52849;DHT22;38714;53.180;5.812;2023-12-20T05:35:39;7.60;99.90
52849;DHT22;38714;53.180;5.812;2023-12-20T05:38:05;7.60;99.90
52849;DHT22;38714;53.180;5.812;2023-12-20T05:40:30;7.60;99.90
52849;DHT22;38714;53.180;5.812;2023-12-20T05:42:56;7.70;99.90
52849;DHT22;38714;53.180;5.812;2023-12-20T05:45:21;7.60;99.90
52849;DHT22;38714;53.180;5.812;2023-12-20T05:47:47;7.60;99.90
52849;DHT22;38714;53.180;5.812;2023-12-20T05:50:12;7.70;99.90
52849;DHT22;38714;53.180;5.812;2023-12-20T05:52:38;7.70;99.90
52849;DHT22;38714;53.180;5.812;2023-12-20T05:55:04;7.70;99.90
52849;DHT22;38714;53.180;5.812;2023-12-20T05:57:29;7.70;99.90
52849;DHT22;38714;53.180;5.812;2023-12-20T05:59:55;7.70;99.90
52849;DHT22;38714;53.180;5.812;2023-12-20T06:02:20;7.70;99.90
52849;DHT22;38714;53.180;5.812;2023-12-20T06:04:46;7.70;99.90
52849;DHT22;38714;53.180;5.812;2023-12-20T06:07:12;7.70;99.90
52849;DHT22;38714;53.180;5.812;2023-12-20T06:09:37;7.70;99.90
52849;DHT22;38714;53.180;5.812;2023-12-20T06:12:03;7.70;99.90
52849;DHT22;38714;53.180;5.812;2023-12-20T06:14:29;7.70;99.90
52849;DHT22;38714;53.180;5.812;2023-12-20T06:16:56;7.70;99.90
52849;DHT22;38714;53.180;5.812;2023-12-20T06:19:22;7.80;99.90
52849;DHT22;38714;53.180;5.812;2023-12-20T06:21:47;7.80;99.90
52849;DHT22;38714;53.180;5.812;2023-12-20T06:24:13;7.80;99.90
52849;DHT22;38714;53.180;5.812;2023-12-20T06:26:38;7.80;99.90
52849;DHT22;38714;53.180;5.812;2023-12-20T06:29:04;7.80;99.90
52849;DHT22;38714;53.180;5.812;2023-12-20T06:31:30;7.80;99.90
52849;DHT22;38714;53.180;5.812;2023-12-20T06:33:55;7.80;99.90
52849;DHT22;38714;53.180;5.812;2023-12-20T06:36:26;7.80;99.90
52849;DHT22;38714;53.180;5.812;2023-12-20T06:38:52;7.80;99.90
52849;DHT22;38714;53.180;5.812;2023-12-20T06:41:18;7.80;99.90
52849;DHT22;38714;53.180;5.812;2023-12-20T06:43:44;7.80;99.90
52849;DHT22;38714;53.180;5.812;2023-12-20T06:46:10;7.80;99.90
52849;DHT22;38714;53.180;5.812;2023-12-20T06:48:36;7.80;99.90
52849;DHT22;38714;53.180;5.812;2023-12-20T06:51:01;7.80;99.90
52849;DHT22;38714;53.180;5.812;2023-12-20T06:53:27;7.80;99.90
52849;DHT22;38714;53.180;5.812;2023-12-20T06:55:53;7.80;99.90
52849;DHT22;38714;53.180;5.812;2023-12-20T06:58:19;7.80;99.90
52849;DHT22;38714;53.180;5.812;2023-12-20T07:00:44;7.80;99.90
52849;DHT22;38714;53.180;5.812;2023-12-20T07:03:10;7.80;99.90
52849;DHT22;38714;53.180;5.812;2023-12-20T07:05:35;7.80;99.90
52849;DHT22;38714;53.180;5.812;2023-12-20T07:08:01;7.80;99.90
52849;DHT22;38714;53.180;5.812;2023-12-20T07:10:27;7.80;99.90
52849;DHT22;38714;53.180;5.812;2023-12-20T07:12:52;7.70;99.90
52849;DHT22;38714;53.180;5.812;2023-12-20T07:15:21;7.70;99.90
52849;DHT22;38714;53.180;5.812;2023-12-20T07:17:46;7.70;99.90
52849;DHT22;38714;53.180;5.812;2023-12-20T07:20:12;7.70;99.90
52849;DHT22;38714;53.180;5.812;2023-12-20T07:22:38;7.70;99.90
52849;DHT22;38714;53.180;5.812;2023-12-20T07:25:04;7.60;99.90
52849;DHT22;38714;53.180;5.812;2023-12-20T07:27:30;7.70;99.90
52849;DHT22;38714;53.180;5.812;2023-12-20T07:29:55;7.70;99.90
52849;DHT22;38714;53.180;5.812;2023-12-20T07:32:21;7.70;99.90
52849;DHT22;38714;53.180;5.812;2023-12-20T07:34:47;7.70;99.90
52849;DHT22;38714;53.180;5.812;2023-12-20T07:37:12;7.70;99.90
52849;DHT22;38714;53.180;5.812;2023-12-20T07:39:41;7.80;99.90
52849;DHT22;38714;53.180;5.812;2023-12-20T07:42:08;7.80;99.90
52849;DHT22;38714;53.180;5.812;2023-12-20T07:44:34;7.80;99.90
52849;DHT22;38714;53.180;5.812;2023-12-20T07:47:01;7.80;99.90
52849;DHT22;38714;53.180;5.812;2023-12-20T07:49:27;7.80;99.90
52849;DHT22;38714;53.180;5.812;2023-12-20T07:51:52;7.80;99.90
52849;DHT22;38714;53.180;5.812;2023-12-20T07:54:18;7.80;99.90
52849;DHT22;38714;53.180;5.812;2023-12-20T07:56:43;7.80;99.90
52849;DHT22;38714;53.180;5.812;2023-12-20T07:59:09;7.80;99.90
52849;DHT22;38714;53.180;5.812;2023-12-20T08:01:35;7.60;99.90
52849;DHT22;38714;53.180;5.812;2023-12-20T08:04:00;7.50;99.90
52849;DHT22;38714;53.180;5.812;2023-12-20T08:06:26;7.40;99.90
52849;DHT22;38714;53.180;5.812;2023-12-20T08:08:51;7.40;99.90
52849;DHT22;38714;53.180;5.812;2023-12-20T08:11:17;7.30;99.90
52849;DHT22;38714;53.180;5.812;2023-12-20T08:13:43;7.40;99.90
52849;DHT22;38714;53.180;5.812;2023-12-20T08:16:08;7.40;99.90
52849;DHT22;38714;53.180;5.812;2023-12-20T08:18:34;7.40;99.90
52849;DHT22;38714;53.180;5.812;2023-12-20T08:21:00;7.40;99.90
52849;DHT22;38714;53.180;5.812;2023-12-20T08:23:26;7.50;99.90
52849;DHT22;38714;53.180;5.812;2023-12-20T08:25:52;7.50;99.90
52849;DHT22;38714;53.180;5.812;2023-12-20T08:28:17;7.50;99.90
52849;DHT22;38714;53.180;5.812;2023-12-20T08:30:43;7.60;99.90
52849;DHT22;38714;53.180;5.812;2023-12-20T08:33:09;7.60;99.90
52849;DHT22;38714;53.180;5.812;2023-12-20T08:35:40;7.70;99.90
52849;DHT22;38714;53.180;5.812;2023-12-20T08:38:06;7.70;99.90
52849;DHT22;38714;53.180;5.812;2023-12-20T08:40:32;7.70;99.90
52849;DHT22;38714;53.180;5.812;2023-12-20T08:42:57;7.80;99.90
52849;DHT22;38714;53.180;5.812;2023-12-20T08:45:23;7.80;99.90
52849;DHT22;38714;53.180;5.812;2023-12-20T08:47:50;7.80;99.90
52849;DHT22;38714;53.180;5.812;2023-12-20T08:50:15;7.80;99.90
52849;DHT22;38714;53.180;5.812;2023-12-20T08:52:41;7.80;99.90
52849;DHT22;38714;53.180;5.812;2023-12-20T08:55:08;7.90;99.90
52849;DHT22;38714;53.180;5.812;2023-12-20T08:57:33;7.90;99.90
52849;DHT22;38714;53.180;5.812;2023-12-20T08:59:59;7.90;99.90
52849;DHT22;38714;53.180;5.812;2023-12-20T09:02:24;7.60;99.90
52849;DHT22;38714;53.180;5.812;2023-12-20T09:04:50;7.50;99.90
52849;DHT22;38714;53.180;5.812;2023-12-20T09:07:23;7.40;99.90
52849;DHT22;38714;53.180;5.812;2023-12-20T09:09:48;7.30;99.90
52849;DHT22;38714;53.180;5.812;2023-12-20T09:12:14;7.20;99.90
52849;DHT22;38714;53.180;5.812;2023-12-20T09:14:40;7.10;99.90
52849;DHT22;38714;53.180;5.812;2023-12-20T09:17:06;7.10;99.90
52849;DHT22;38714;53.180;5.812;2023-12-20T09:19:34;7.00;99.90
52849;DHT22;38714;53.180;5.812;2023-12-20T09:21:59;7.00;99.90
52849;DHT22;38714;53.180;5.812;2023-12-20T09:24:25;6.90;99.90
52849;DHT22;38714;53.180;5.812;2023-12-20T09:26:50;6.90;99.90
52849;DHT22;38714;53.180;5.812;2023-12-20T09:29:16;6.80;99.90
52849;DHT22;38714;53.180;5.812;2023-12-20T09:31:42;6.80;99.90
52849;DHT22;38714;53.180;5.812;2023-12-20T09:34:09;6.80;99.90
52849;DHT22;38714;53.180;5.812;2023-12-20T09:36:34;6.80;99.90
52849;DHT22;38714;53.180;5.812;2023-12-20T09:39:01;6.80;99.90
52849;DHT22;38714;53.180;5.812;2023-12-20T09:41:29;6.80;99.90
52849;DHT22;38714;53.180;5.812;2023-12-20T09:43:59;6.80;99.90
52849;DHT22;38714;53.180;5.812;2023-12-20T09:46:28;6.80;99.90
52849;DHT22;38714;53.180;5.812;2023-12-20T09:48:59;6.80;99.90
52849;DHT22;38714;53.180;5.812;2023-12-20T09:51:26;6.80;99.90
52849;DHT22;38714;53.180;5.812;2023-12-20T09:53:54;6.80;99.90
52849;DHT22;38714;53.180;5.812;2023-12-20T09:56:21;6.80;99.90
52849;DHT22;38714;53.180;5.812;2023-12-20T09:58:47;6.80;99.90
52849;DHT22;38714;53.180;5.812;2023-12-20T10:01:13;6.80;99.90
52849;DHT22;38714;53.180;5.812;2023-12-20T10:03:41;6.80;99.90
52849;DHT22;38714;53.180;5.812;2023-12-20T10:06:07;6.80;99.90
52849;DHT22;38714;53.180;5.812;2023-12-20T10:08:32;6.80;99.90
52849;DHT22;38714;53.180;5.812;2023-12-20T10:10:58;6.80;99.90
52849;DHT22;38714;53.180;5.812;2023-12-20T10:13:28;6.90;99.90
52849;DHT22;38714;53.180;5.812;2023-12-20T10:15:55;7.00;99.90
52849;DHT22;38714;53.180;5.812;2023-12-20T10:18:21;7.00;99.90
52849;DHT22;38714;53.180;5.812;2023-12-20T10:20:47;7.00;99.90
52849;DHT22;38714;53.180;5.812;2023-12-20T10:23:13;7.10;99.90
52849;DHT22;38714;53.180;5.812;2023-12-20T10:25:39;7.10;99.90
52849;DHT22;38714;53.180;5.812;2023-12-20T10:28:16;7.10;99.90
52849;DHT22;38714;53.180;5.812;2023-12-20T10:30:48;7.10;99.90
52849;DHT22;38714;53.180;5.812;2023-12-20T10:33:13;7.10;99.90
52849;DHT22;38714;53.180;5.812;2023-12-20T10:35:40;7.20;99.90
52849;DHT22;38714;53.180;5.812;2023-12-20T10:38:06;7.20;99.90
52849;DHT22;38714;53.180;5.812;2023-12-20T10:40:35;7.20;99.90
52849;DHT22;38714;53.180;5.812;2023-12-20T10:43:04;7.20;99.90
52849;DHT22;38714;53.180;5.812;2023-12-20T10:45:30;7.30;99.90
52849;DHT22;38714;53.180;5.812;2023-12-20T10:47:57;7.30;99.90
52849;DHT22;38714;53.180;5.812;2023-12-20T10:50:24;7.30;99.90
52849;DHT22;38714;53.180;5.812;2023-12-20T10:52:52;7.30;99.90
52849;DHT22;38714;53.180;5.812;2023-12-20T10:55:22;7.40;99.90
52849;DHT22;38714;53.180;5.812;2023-12-20T10:57:49;7.40;99.90
52849;DHT22;38714;53.180;5.812;2023-12-20T11:00:17;7.40;99.90
52849;DHT22;38714;53.180;5.812;2023-12-20T11:02:44;7.40;99.90
52849;DHT22;38714;53.180;5.812;2023-12-20T11:08:03;7.50;99.90
52849;DHT22;38714;53.180;5.812;2023-12-20T11:10:46;7.50;99.90
52849;DHT22;38714;53.180;5.812;2023-12-20T11:13:36;7.50;99.90
52849;DHT22;38714;53.180;5.812;2023-12-20T11:16:03;7.50;99.90
52849;DHT22;38714;53.180;5.812;2023-12-20T11:18:30;7.50;99.90
52849;DHT22;38714;53.180;5.812;2023-12-20T11:21:04;7.60;99.90
52849;DHT22;38714;53.180;5.812;2023-12-20T11:23:32;7.60;99.90
52849;DHT22;38714;53.180;5.812;2023-12-20T11:25:59;7.60;99.90
52849;DHT22;38714;53.180;5.812;2023-12-20T11:28:26;7.60;99.90
52849;DHT22;38714;53.180;5.812;2023-12-20T11:30:53;7.70;99.90
52849;DHT22;38714;53.180;5.812;2023-12-20T11:33:23;7.70;99.90
52849;DHT22;38714;53.180;5.812;2023-12-20T11:35:50;7.70;99.90
52849;DHT22;38714;53.180;5.812;2023-12-20T11:38:15;7.70;99.90
52849;DHT22;38714;53.180;5.812;2023-12-20T11:40:42;7.70;99.90
52849;DHT22;38714;53.180;5.812;2023-12-20T11:43:08;7.70;99.90
52849;DHT22;38714;53.180;5.812;2023-12-20T11:45:34;7.70;99.90
52849;DHT22;38714;53.180;5.812;2023-12-20T11:48:01;7.70;99.90
52849;DHT22;38714;53.180;5.812;2023-12-20T11:50:28;7.80;99.90
52849;DHT22;38714;53.180;5.812;2023-12-20T11:52:55;7.80;99.90
52849;DHT22;38714;53.180;5.812;2023-12-20T11:55:21;7.80;99.90
52849;DHT22;38714;53.180;5.812;2023-12-20T11:57:47;7.80;99.90
52849;DHT22;38714;53.180;5.812;2023-12-20T12:00:14;7.80;99.90
52849;DHT22;38714;53.180;5.812;2023-12-20T12:02:39;7.80;99.90
52849;DHT22;38714;53.180;5.812;2023-12-20T12:05:06;7.80;99.90
52849;DHT22;38714;53.180;5.812;2023-12-20T12:07:32;7.70;99.90
52849;DHT22;38714;53.180;5.812;2023-12-20T12:09:57;7.70;99.90
52849;DHT22;38714;53.180;5.812;2023-12-20T12:12:24;7.80;99.90
52849;DHT22;38714;53.180;5.812;2023-12-20T12:14:50;7.70;99.90
52849;DHT22;38714;53.180;5.812;2023-12-20T12:17:16;7.70;99.90
52849;DHT22;38714;53.180;5.812;2023-12-20T12:19:42;7.70;99.90
52849;DHT22;38714;53.180;5.812;2023-12-20T12:22:12;7.70;99.90
52849;DHT22;38714;53.180;5.812;2023-12-20T12:24:48;7.70;99.90
52849;DHT22;38714;53.180;5.812;2023-12-20T12:27:15;7.70;99.90
52849;DHT22;38714;53.180;5.812;2023-12-20T12:29:41;7.60;99.90
52849;DHT22;38714;53.180;5.812;2023-12-20T12:32:25;7.60;99.90
52849;DHT22;38714;53.180;5.812;2023-12-20T12:34:50;7.50;99.90
52849;DHT22;38714;53.180;5.812;2023-12-20T12:37:16;7.50;99.90
52849;DHT22;38714;53.180;5.812;2023-12-20T12:39:42;7.50;99.90
52849;DHT22;38714;53.180;5.812;2023-12-20T12:42:08;7.40;99.90
52849;DHT22;38714;53.180;5.812;2023-12-20T12:44:33;7.40;99.90
52849;DHT22;38714;53.180;5.812;2023-12-20T12:46:59;7.30;99.90
52849;DHT22;38714;53.180;5.812;2023-12-20T12:49:24;7.30;99.90
52849;DHT22;38714;53.180;5.812;2023-12-20T12:51:51;7.30;99.90
52849;DHT22;38714;53.180;5.812;2023-12-20T12:54:16;7.30;99.90
52849;DHT22;38714;53.180;5.812;2023-12-20T12:56:44;7.20;99.90
52849;DHT22;38714;53.180;5.812;2023-12-20T12:59:10;7.20;99.90
52849;DHT22;38714;53.180;5.812;2023-12-20T13:01:36;7.20;99.90
52849;DHT22;38714;53.180;5.812;2023-12-20T13:04:02;7.20;99.90
52849;DHT22;38714;53.180;5.812;2023-12-20T13:06:29;7.20;99.90
52849;DHT22;38714;53.180;5.812;2023-12-20T13:08:55;7.20;99.90
52849;DHT22;38714;53.180;5.812;2023-12-20T13:11:20;7.10;99.90
52849;DHT22;38714;53.180;5.812;2023-12-20T13:13:46;7.10;99.90
52849;DHT22;38714;53.180;5.812;2023-12-20T13:16:12;7.00;99.90
52849;DHT22;38714;53.180;5.812;2023-12-20T13:18:38;7.00;99.90
52849;DHT22;38714;53.180;5.812;2023-12-20T13:21:08;7.00;99.90
52849;DHT22;38714;53.180;5.812;2023-12-20T13:23:33;7.00;99.90
52849;DHT22;38714;53.180;5.812;2023-12-20T13:25:59;7.00;99.90
52849;DHT22;38714;53.180;5.812;2023-12-20T13:28:24;6.90;99.90
52849;DHT22;38714;53.180;5.812;2023-12-20T13:30:50;6.90;99.90
52849;DHT22;38714;53.180;5.812;2023-12-20T13:33:15;6.90;99.90
52849;DHT22;38714;53.180;5.812;2023-12-20T13:35:41;6.90;99.90
52849;DHT22;38714;53.180;5.812;2023-12-20T13:38:07;6.90;99.90
52849;DHT22;38714;53.180;5.812;2023-12-20T13:40:33;6.90;99.90
52849;DHT22;38714;53.180;5.812;2023-12-20T13:42:58;6.90;99.90
52849;DHT22;38714;53.180;5.812;2023-12-20T13:45:24;6.90;99.90
52849;DHT22;38714;53.180;5.812;2023-12-20T13:47:50;6.90;99.90
52849;DHT22;38714;53.180;5.812;2023-12-20T13:50:16;6.90;99.90
52849;DHT22;38714;53.180;5.812;2023-12-20T13:52:41;6.90;99.90
52849;DHT22;38714;53.180;5.812;2023-12-20T13:55:07;6.80;99.90
52849;DHT22;38714;53.180;5.812;2023-12-20T13:57:33;6.80;99.90
52849;DHT22;38714;53.180;5.812;2023-12-20T13:59:59;6.90;99.90
52849;DHT22;38714;53.180;5.812;2023-12-20T14:02:25;6.90;99.90
52849;DHT22;38714;53.180;5.812;2023-12-20T14:04:52;6.90;99.90
52849;DHT22;38714;53.180;5.812;2023-12-20T14:07:18;6.90;99.90
52849;DHT22;38714;53.180;5.812;2023-12-20T14:09:43;6.90;99.90
52849;DHT22;38714;53.180;5.812;2023-12-20T14:12:11;6.90;99.90
52849;DHT22;38714;53.180;5.812;2023-12-20T14:14:36;6.90;99.90
52849;DHT22;38714;53.180;5.812;2023-12-20T14:17:02;6.90;99.90
52849;DHT22;38714;53.180;5.812;2023-12-20T14:19:29;7.00;99.90
52849;DHT22;38714;53.180;5.812;2023-12-20T14:21:54;7.00;99.90
52849;DHT22;38714;53.180;5.812;2023-12-20T14:24:20;7.00;99.90
52849;DHT22;38714;53.180;5.812;2023-12-20T14:26:46;7.00;99.90
52849;DHT22;38714;53.180;5.812;2023-12-20T14:29:11;7.00;99.90
52849;DHT22;38714;53.180;5.812;2023-12-20T14:31:37;7.00;99.90
52849;DHT22;38714;53.180;5.812;2023-12-20T14:34:04;7.00;99.90
52849;DHT22;38714;53.180;5.812;2023-12-20T14:36:30;7.00;99.90
52849;DHT22;38714;53.180;5.812;2023-12-20T14:38:58;7.10;99.90
52849;DHT22;38714;53.180;5.812;2023-12-20T14:41:24;7.10;99.90
52849;DHT22;38714;53.180;5.812;2023-12-20T14:43:51;7.10;99.90
52849;DHT22;38714;53.180;5.812;2023-12-20T14:46:19;7.20;99.90
52849;DHT22;38714;53.180;5.812;2023-12-20T14:48:45;7.20;99.90
52849;DHT22;38714;53.180;5.812;2023-12-20T14:51:10;7.30;99.90
52849;DHT22;38714;53.180;5.812;2023-12-20T14:53:37;7.30;99.90
52849;DHT22;38714;53.180;5.812;2023-12-20T14:56:04;7.30;99.90
52849;DHT22;38714;53.180;5.812;2023-12-20T14:58:30;7.40;99.90
52849;DHT22;38714;53.180;5.812;2023-12-20T15:00:55;7.40;99.90
52849;DHT22;38714;53.180;5.812;2023-12-20T15:03:21;7.40;99.90
52849;DHT22;38714;53.180;5.812;2023-12-20T15:05:47;7.50;99.90
52849;DHT22;38714;53.180;5.812;2023-12-20T15:08:13;7.50;99.90
52849;DHT22;38714;53.180;5.812;2023-12-20T15:10:39;7.50;99.90
52849;DHT22;38714;53.180;5.812;2023-12-20T15:13:05;7.50;99.90
52849;DHT22;38714;53.180;5.812;2023-12-20T15:15:31;7.50;99.90
52849;DHT22;38714;53.180;5.812;2023-12-20T15:17:59;7.50;99.90
52849;DHT22;38714;53.180;5.812;2023-12-20T15:20:25;7.60;99.90
52849;DHT22;38714;53.180;5.812;2023-12-20T15:22:50;7.60;99.90
52849;DHT22;38714;53.180;5.812;2023-12-20T15:25:16;7.60;99.90
52849;DHT22;38714;53.180;5.812;2023-12-20T15:27:47;7.60;99.90
52849;DHT22;38714;53.180;5.812;2023-12-20T15:30:18;7.60;99.90
52849;DHT22;38714;53.180;5.812;2023-12-20T15:32:44;7.60;99.90
52849;DHT22;38714;53.180;5.812;2023-12-20T15:35:10;7.60;99.90
52849;DHT22;38714;53.180;5.812;2023-12-20T15:37:35;7.60;99.90
52849;DHT22;38714;53.180;5.812;2023-12-20T15:40:01;7.50;99.90
52849;DHT22;38714;53.180;5.812;2023-12-20T15:42:27;7.50;99.90